Time;durP1;ratioP1;P1;durP2;ratioP2;P2;SDS_P1;SDS_P2;PMS_P1;PMS_P2;Temp;Humidity;BMP_temperature;BMP_pressure;BME280_temperature;BME280_humidity;BME280_pressure;Samples;Min_cycle;Max_cycle;Signal;HPM_P1;HPM_P2
2022/01/31 00:00:23;;;;;;;7.78;3.80;;;;;;;;;;5030930;28;20052;-37
2022/01/31 00:02:49;;;;;;;5.18;2.15;;;;;;;;;;5031233;28;20027;-37
2022/01/31 00:05:15;;;;;;;6.80;2.15;;;;;;;;;;5032174;28;20073;-37
2022/01/31 00:07:41;;;;;;;4.93;2.58;;;;;;;;;;5034957;28;20108;-37
2022/01/31 00:10:09;;;;;;;3.95;2.38;;;;;;;;;;5034563;28;20494;-37
2022/01/31 00:12:45;;;;;;;5.07;2.40;;;;;;;;;;5034633;28;20029;-37
2022/01/31 00:15:11;;;;;;;6.25;3.22;;;;;;;;;;5034704;28;20026;-37
2022/01/31 00:17:36;;;;;;;4.30;2.58;;;;;;;;;;5033261;28;20468;-37
2022/01/31 00:20:02;;;;;;;6.15;2.50;;;;;;;;;;5034707;28;20041;-38
2022/01/31 00:22:28;;;;;;;3.85;2.40;;;;;;;;;;5034268;28;20025;-37
2022/01/31 00:24:53;;;;;;;8.65;3.42;;;;;;;;;;5034603;28;20087;-37
2022/01/31 00:27:19;;;;;;;7.70;2.78;;;;;;;;;;5034108;28;20017;-37
2022/01/31 00:29:44;;;;;;;12.70;3.03;;;;;;;;;;5033067;28;20464;-37
2022/01/31 00:32:09;;;;;;;8.85;3.03;;;;;;;;;;5032839;28;20427;-37
2022/01/31 00:34:35;;;;;;;6.18;2.10;;;;;;;;;;5034228;28;20041;-37
2022/01/31 00:37:00;;;;;;;7.72;2.17;;;;;;;;;;5034029;28;20017;-38
2022/01/31 00:39:27;;;;;;;6.72;2.50;;;;;;;;;;5034445;28;20041;-37
2022/01/31 00:41:53;;;;;;;5.45;3.30;;;;;;;;;;5033905;28;20402;-37
2022/01/31 00:44:40;;;;;;;4.45;2.83;;;;;;;;;;5033824;28;20045;-37
2022/01/31 00:47:17;;;;;;;8.40;3.55;;;;;;;;;;5034174;28;20112;-37
2022/01/31 00:49:49;;;;;;;5.03;3.47;;;;;;;;;;5034073;28;20060;-37
2022/01/31 00:52:15;;;;;;;4.57;2.75;;;;;;;;;;5033994;28;20034;-37
2022/01/31 00:54:40;;;;;;;5.68;3.17;;;;;;;;;;5034170;28;20356;-37
2022/01/31 00:57:06;;;;;;;5.88;3.58;;;;;;;;;;5032734;28;20040;-37
2022/01/31 00:59:31;;;;;;;4.78;2.83;;;;;;;;;;5033816;28;20099;-37
2022/01/31 01:01:56;;;;;;;4.93;2.88;;;;;;;;;;5033587;28;20409;-37
2022/01/31 01:04:22;;;;;;;3.50;2.53;;;;;;;;;;5032567;28;20029;-37
2022/01/31 01:06:47;;;;;;;5.55;3.03;;;;;;;;;;5033676;28;20128;-37
2022/01/31 01:09:13;;;;;;;5.72;3.42;;;;;;;;;;5033540;28;20467;-37
2022/01/31 01:11:38;;;;;;;6.28;2.60;;;;;;;;;;5032162;28;20048;-37
2022/01/31 01:14:04;;;;;;;4.75;2.53;;;;;;;;;;5033475;28;20096;-37
2022/01/31 01:16:30;;;;;;;6.63;3.50;;;;;;;;;;5032315;28;20495;-37
2022/01/31 01:18:55;;;;;;;5.35;2.72;;;;;;;;;;5033445;28;20020;-37
2022/01/31 01:21:20;;;;;;;2.75;2.28;;;;;;;;;;5032052;28;20542;-37
2022/01/31 01:23:46;;;;;;;3.47;1.88;;;;;;;;;;5033282;28;20495;-37
2022/01/31 01:26:11;;;;;;;5.50;2.00;;;;;;;;;;5031947;28;20041;-37
2022/01/31 01:28:37;;;;;;;6.95;2.58;;;;;;;;;;5033267;28;20013;-37
2022/01/31 01:31:03;;;;;;;5.72;2.85;;;;;;;;;;5033075;28;20025;-37
2022/01/31 01:33:37;;;;;;;5.50;3.10;;;;;;;;;;5031718;28;20026;-37
2022/01/31 01:36:04;;;;;;;4.13;2.75;;;;;;;;;;5033269;28;20133;-37
2022/01/31 01:38:30;;;;;;;5.00;2.20;;;;;;;;;;5033378;28;20037;-37
2022/01/31 01:40:59;;;;;;;4.40;2.33;;;;;;;;;;5031368;28;20081;-37
2022/01/31 01:43:25;;;;;;;6.10;2.70;;;;;;;;;;5033046;28;20049;-37
2022/01/31 01:45:52;;;;;;;3.55;2.58;;;;;;;;;;5031564;28;20063;-37
2022/01/31 01:48:18;;;;;;;5.32;2.88;;;;;;;;;;5031451;28;20396;-37
2022/01/31 01:50:45;;;;;;;4.05;2.58;;;;;;;;;;5031505;28;20588;-37
2022/01/31 01:53:12;;;;;;;8.57;3.13;;;;;;;;;;5031633;28;20032;-37
2022/01/31 01:55:38;;;;;;;3.35;2.63;;;;;;;;;;5031413;28;20029;-37
2022/01/31 01:58:13;;;;;;;3.17;2.05;;;;;;;;;;5031291;28;20029;-37
2022/01/31 02:00:52;;;;;;;;;;;;;;;;;;5031800;28;20029;-37
2022/01/31 02:03:30;;;;;;;5.30;3.00;;;;;;;;;;5031315;28;20305;-37
2022/01/31 02:05:56;;;;;;;9.05;2.92;;;;;;;;;;5031155;28;20045;-37
2022/01/31 02:08:22;;;;;;;5.82;2.78;;;;;;;;;;5031112;28;20021;-37
2022/01/31 02:10:48;;;;;;;3.45;1.95;;;;;;;;;;5031126;28;20038;-37
2022/01/31 02:13:26;;;;;;;6.93;2.05;;;;;;;;;;5031044;28;20017;-37
2022/01/31 02:16:11;;;;;;;9.55;3.00;;;;;;;;;;5032214;28;20033;-37
2022/01/31 02:18:49;;;;;;;4.00;2.50;;;;;;;;;;5032329;28;20388;-37
2022/01/31 02:21:38;;;;;;;2.95;1.90;;;;;;;;;;5031617;28;20053;-37
2022/01/31 02:24:24;;;;;;;5.38;2.70;;;;;;;;;;5030647;28;20037;-37
2022/01/31 02:27:22;;;;;;;5.15;2.45;;;;;;;;;;5030729;28;20455;-37
2022/01/31 02:29:47;;;;;;;4.55;2.92;;;;;;;;;;5030680;28;20030;-37
2022/01/31 02:32:14;;;;;;;3.67;2.55;;;;;;;;;;5032170;28;20369;-37
2022/01/31 02:34:40;;;;;;;3.05;2.10;;;;;;;;;;5030664;28;20124;-38
2022/01/31 02:37:06;;;;;;;6.07;2.65;;;;;;;;;;5030511;28;20277;-37
2022/01/31 02:39:32;;;;;;;3.28;2.13;;;;;;;;;;5030549;28;20029;-37
2022/01/31 02:41:58;;;;;;;3.67;1.75;;;;;;;;;;5030270;28;20087;-37
2022/01/31 02:44:24;;;;;;;3.33;2.05;;;;;;;;;;5030456;28;20491;-37
2022/01/31 02:47:13;;;;;;;6.15;2.67;;;;;;;;;;5031696;28;20038;-37
2022/01/31 02:50:14;;;;;;;3.85;1.80;;;;;;;;;;5030511;28;20510;-37
2022/01/31 02:52:33;;;;;;;3.05;2.50;;;;;;;;;;5032186;28;20040;-37
2022/01/31 02:55:00;;;;;;;4.20;2.42;;;;;;;;;;5013975;28;20029;-37
2022/01/31 02:57:26;;;;;;;4.32;2.00;;;;;;;;;;5030421;28;20025;-37
2022/01/31 02:59:51;;;;;;;5.25;2.67;;;;;;;;;;5030280;28;20021;-37
2022/01/31 03:02:19;;;;;;;5.45;2.28;;;;;;;;;;5030119;28;20511;-37
2022/01/31 03:04:45;;;;;;;5.03;2.80;;;;;;;;;;5030206;28;20080;-37
2022/01/31 03:07:11;;;;;;;5.25;2.33;;;;;;;;;;5030090;28;20033;-37
2022/01/31 03:09:37;;;;;;;2.20;1.63;;;;;;;;;;5030198;28;20513;-37
2022/01/31 03:12:13;;;;;;;8.40;3.30;;;;;;;;;;5029962;28;20029;-37
2022/01/31 03:14:44;;;;;;;2.70;2.00;;;;;;;;;;5030056;28;20464;-37
2022/01/31 03:17:30;;;;;;;4.50;2.15;;;;;;;;;;5031290;28;20116;-37
2022/01/31 03:19:55;;;;;;;3.28;2.10;;;;;;;;;;5030105;28;20128;-37
2022/01/31 03:22:22;;;;;;;5.13;3.60;;;;;;;;;;5029852;28;20482;-37
2022/01/31 03:24:48;;;;;;;3.28;2.08;;;;;;;;;;5031316;28;20073;-37
2022/01/31 03:27:14;;;;;;;3.58;1.75;;;;;;;;;;5029895;28;20064;-37
2022/01/31 03:29:40;;;;;;;3.10;2.10;;;;;;;;;;5029965;28;20030;-37
2022/01/31 03:32:05;;;;;;;2.95;2.13;;;;;;;;;;5029818;28;20156;-37
2022/01/31 03:34:31;;;;;;;5.28;2.47;;;;;;;;;;5031334;28;20034;-37
2022/01/31 03:36:57;;;;;;;4.63;2.47;;;;;;;;;;5029896;28;20021;-37
2022/01/31 03:39:25;;;;;;;4.43;2.20;;;;;;;;;;5029883;28;20038;-37
2022/01/31 03:41:50;;;;;;;4.85;2.05;;;;;;;;;;5034763;28;20045;-37
2022/01/31 03:44:16;;;;;;;7.10;2.78;;;;;;;;;;5033770;28;20045;-37
2022/01/31 03:46:41;;;;;;;4.60;2.13;;;;;;;;;;5033833;28;20029;-37
2022/01/31 03:49:07;;;;;;;12.00;2.90;;;;;;;;;;5033925;28;20036;-37
2022/01/31 03:51:37;;;;;;;6.43;2.80;;;;;;;;;;5033736;28;20017;-37
2022/01/31 03:54:03;;;;;;;3.75;1.98;;;;;;;;;;5033947;28;20037;-37
2022/01/31 03:56:29;;;;;;;4.55;2.47;;;;;;;;;;5033549;28;20013;-37
2022/01/31 03:59:16;;;;;;;3.85;2.00;;;;;;;;;;5033585;28;20029;-37
2022/01/31 04:01:42;;;;;;;2.92;2.08;;;;;;;;;;5033551;28;20029;-37
2022/01/31 04:04:10;;;;;;;3.67;2.08;;;;;;;;;;5034877;28;20083;-37
2022/01/31 04:06:37;;;;;;;4.15;2.15;;;;;;;;;;5034772;28;20067;-37
2022/01/31 04:09:02;;;;;;;10.30;3.63;;;;;;;;;;5034898;28;20455;-37
2022/01/31 04:11:27;;;;;;;4.38;2.53;;;;;;;;;;5034589;28;20061;-37
2022/01/31 04:13:53;;;;;;;6.68;2.47;;;;;;;;;;5034900;28;20025;-37
2022/01/31 04:16:18;;;;;;;5.35;2.63;;;;;;;;;;5034512;28;20503;-37
2022/01/31 04:18:44;;;;;;;4.18;1.83;;;;;;;;;;5034856;28;20415;-37
2022/01/31 04:21:09;;;;;;;9.75;3.03;;;;;;;;;;5034713;28;20029;-37
2022/01/31 04:23:34;;;;;;;4.85;2.30;;;;;;;;;;5034744;28;20026;-37
2022/01/31 04:26:10;;;;;;;5.47;2.78;;;;;;;;;;5034488;28;20099;-38
2022/01/31 04:28:44;;;;;;;3.45;2.17;;;;;;;;;;5034714;28;20078;-37
2022/01/31 04:33:39;;;;;;;5.90;2.80;;;;;;;;;;5034589;28;20049;-37
2022/01/31 04:36:04;;;;;;;3.63;2.15;;;;;;;;;;5034476;28;20076;-37
2022/01/31 04:38:30;;;;;;;6.13;2.10;;;;;;;;;;5034546;28;20029;-37
2022/01/31 04:40:55;;;;;;;3.63;2.08;;;;;;;;;;5032925;28;20104;-37
2022/01/31 04:43:20;;;;;;;3.38;1.98;;;;;;;;;;5034443;28;20059;-37
2022/01/31 04:45:47;;;;;;;6.00;2.33;;;;;;;;;;5033924;28;20037;-37
2022/01/31 04:48:14;;;;;;;5.75;2.60;;;;;;;;;;5034284;28;20036;-37
2022/01/31 04:50:40;;;;;;;6.00;2.55;;;;;;;;;;5034062;28;20095;-37
2022/01/31 04:53:05;;;;;;;8.45;3.15;;;;;;;;;;5033806;28;20025;-37
2022/01/31 04:55:30;;;;;;;6.10;1.95;;;;;;;;;;5034202;28;20052;-37
2022/01/31 04:57:57;;;;;;;3.72;1.75;;;;;;;;;;5034146;28;20112;-37
2022/01/31 05:00:22;;;;;;;4.97;1.95;;;;;;;;;;5033989;28;20045;-37
2022/01/31 05:02:47;;;;;;;8.02;2.22;;;;;;;;;;5034041;28;20033;-37
2022/01/31 05:05:13;;;;;;;3.90;2.55;;;;;;;;;;5032598;28;20132;-37
2022/01/31 05:07:38;;;;;;;3.90;2.95;;;;;;;;;;5033862;28;20040;-37
2022/01/31 05:10:04;;;;;;;4.45;2.10;;;;;;;;;;5033814;28;20501;-37
2022/01/31 05:12:29;;;;;;;4.15;2.45;;;;;;;;;;5033769;28;20337;-37
2022/01/31 05:14:54;;;;;;;6.68;3.15;;;;;;;;;;5033585;28;20472;-37
2022/01/31 05:17:20;;;;;;;6.20;2.65;;;;;;;;;;5033745;28;20446;-37
2022/01/31 05:19:45;;;;;;;11.70;3.45;;;;;;;;;;5033781;28;20042;-37
2022/01/31 05:22:11;;;;;;;6.82;2.65;;;;;;;;;;5033545;28;20017;-37
2022/01/31 05:24:36;;;;;;;3.70;2.17;;;;;;;;;;5033276;28;20103;-37
2022/01/31 05:27:01;;;;;;;5.82;2.83;;;;;;;;;;5033565;28;20423;-37
2022/01/31 05:29:27;;;;;;;7.63;2.63;;;;;;;;;;5033529;28;20464;-37
2022/01/31 05:31:55;;;;;;;6.75;3.38;;;;;;;;;;5033495;28;20044;-37
2022/01/31 05:34:22;;;;;;;5.43;2.40;;;;;;;;;;5033413;28;20040;-37
2022/01/31 05:36:47;;;;;;;6.10;3.15;;;;;;;;;;5033298;28;20033;-37
2022/01/31 05:39:12;;;;;;;5.07;2.42;;;;;;;;;;5033271;28;20037;-37
2022/01/31 05:41:38;;;;;;;8.90;2.90;;;;;;;;;;5032989;28;20062;-37
2022/01/31 05:44:03;;;;;;;8.90;2.80;;;;;;;;;;5033043;28;20041;-37
2022/01/31 05:46:29;;;;;;;4.60;2.28;;;;;;;;;;5033302;28;20100;-37
2022/01/31 05:48:54;;;;;;;8.13;4.00;;;;;;;;;;5033117;28;20033;-37
2022/01/31 05:51:21;;;;;;;5.47;3.22;;;;;;;;;;5033244;28;20021;-37
2022/01/31 05:53:47;;;;;;;4.55;3.13;;;;;;;;;;5033138;28;20041;-37
2022/01/31 05:56:13;;;;;;;5.70;2.28;;;;;;;;;;5032909;28;20026;-37
2022/01/31 05:58:38;;;;;;;4.18;2.08;;;;;;;;;;5031795;28;20048;-37
2022/01/31 06:01:04;;;;;;;4.78;2.30;;;;;;;;;;5032765;28;20099;-37
2022/01/31 06:03:30;;;;;;;2.97;2.22;;;;;;;;;;5031896;28;20379;-37
2022/01/31 06:05:55;;;;;;;6.18;1.95;;;;;;;;;;5032720;28;20092;-37
2022/01/31 06:08:20;;;;;;;5.13;2.63;;;;;;;;;;5032715;28;20431;-37
2022/01/31 06:10:48;;;;;;;6.72;2.70;;;;;;;;;;5032293;28;20025;-37
2022/01/31 06:13:16;;;;;;;5.00;2.28;;;;;;;;;;5032637;28;20026;-37
2022/01/31 06:15:41;;;;;;;3.50;1.73;;;;;;;;;;5032392;28;20522;-37
2022/01/31 06:18:07;;;;;;;3.67;2.90;;;;;;;;;;5032588;28;20026;-37
2022/01/31 06:20:32;;;;;;;6.15;2.70;;;;;;;;;;5032189;28;20379;-37
2022/01/31 06:22:58;;;;;;;3.75;2.20;;;;;;;;;;5032521;28;20037;-37
2022/01/31 06:25:23;;;;;;;3.28;2.47;;;;;;;;;;5032214;28;20025;-37
2022/01/31 06:27:50;;;;;;;3.08;1.85;;;;;;;;;;5031149;28;20476;-37
2022/01/31 06:30:16;;;;;;;3.85;2.17;;;;;;;;;;5030825;28;20028;-37
2022/01/31 06:32:45;;;;;;;3.33;1.75;;;;;;;;;;5030665;28;20152;-37
2022/01/31 06:35:12;;;;;;;3.60;1.70;;;;;;;;;;5030652;28;20112;-37
2022/01/31 06:37:38;;;;;;;8.43;3.58;;;;;;;;;;5032217;28;20029;-37
2022/01/31 06:40:04;;;;;;;4.22;2.03;;;;;;;;;;5032042;28;20029;-37
2022/01/31 06:42:30;;;;;;;3.92;2.30;;;;;;;;;;5031750;28;20045;-37
2022/01/31 06:44:55;;;;;;;5.28;2.20;;;;;;;;;;5031676;28;20037;-37
2022/01/31 06:47:21;;;;;;;4.22;2.53;;;;;;;;;;5031120;28;20064;-36
2022/01/31 06:49:47;;;;;;;5.63;2.85;;;;;;;;;;5031730;28;20086;-37
2022/01/31 06:52:12;;;;;;;4.85;2.17;;;;;;;;;;5031549;28;20021;-37
2022/01/31 06:54:38;;;;;;;4.68;2.90;;;;;;;;;;5030146;28;20032;-37
2022/01/31 06:57:05;;;;;;;9.77;2.97;;;;;;;;;;5031491;28;20029;-37
2022/01/31 06:59:31;;;;;;;5.95;2.03;;;;;;;;;;5031610;28;20029;-37
2022/01/31 07:01:56;;;;;;;3.55;1.98;;;;;;;;;;5031615;28;20040;-37
2022/01/31 07:04:22;;;;;;;3.67;1.90;;;;;;;;;;5031375;28;20037;-37
2022/01/31 07:06:47;;;;;;;2.10;1.52;;;;;;;;;;5031523;28;20037;-37
2022/01/31 07:09:13;;;;;;;3.22;2.35;;;;;;;;;;5031303;28;20111;-37
2022/01/31 07:11:41;;;;;;;1.65;1.50;;;;;;;;;;5031617;28;20092;-37
2022/01/31 07:14:23;;;;;;;3.35;1.60;;;;;;;;;;5030726;28;20526;-37
2022/01/31 07:16:49;;;;;;;6.68;2.10;;;;;;;;;;5031273;28;20124;-37
2022/01/31 07:19:14;;;;;;;3.40;1.67;;;;;;;;;;5031255;28;20100;-37
2022/01/31 07:21:48;;;;;;;3.72;2.28;;;;;;;;;;5031209;28;20471;-37
2022/01/31 07:24:24;;;;;;;7.88;3.28;;;;;;;;;;5031091;28;20037;-37
2022/01/31 07:26:51;;;;;;;8.95;3.30;;;;;;;;;;5031269;28;20484;-36
2022/01/31 07:29:17;;;;;;;9.18;3.42;;;;;;;;;;5031411;28;20420;-37
2022/01/31 07:31:45;;;;;;;6.03;2.72;;;;;;;;;;5031205;28;20028;-37
2022/01/31 07:34:12;;;;;;;8.98;3.30;;;;;;;;;;5029850;28;20017;-37
2022/01/31 07:36:38;;;;;;;13.18;4.53;;;;;;;;;;5031016;28;20108;-36
2022/01/31 07:39:04;;;;;;;8.95;3.75;;;;;;;;;;5030796;28;20113;-37
2022/01/31 07:41:30;;;;;;;7.72;2.67;;;;;;;;;;5031105;28;20046;-37
2022/01/31 07:43:56;;;;;;;8.75;2.53;;;;;;;;;;5031154;28;20091;-37
2022/01/31 07:46:21;;;;;;;5.00;3.15;;;;;;;;;;5031223;28;20076;-37
2022/01/31 07:48:48;;;;;;;7.03;3.17;;;;;;;;;;5031260;28;20020;-37
2022/01/31 07:51:16;;;;;;;6.40;3.47;;;;;;;;;;5030833;28;20025;-37
2022/01/31 07:53:42;;;;;;;7.95;3.75;;;;;;;;;;5031245;28;20116;-37
2022/01/31 07:56:08;;;;;;;7.28;3.17;;;;;;;;;;5030925;28;20542;-37
2022/01/31 07:58:37;;;;;;;8.57;3.47;;;;;;;;;;5030935;28;20026;-37
2022/01/31 08:01:04;;;;;;;7.10;2.88;;;;;;;;;;5030891;28;20108;-38
2022/01/31 08:03:29;;;;;;;4.80;2.47;;;;;;;;;;5030907;28;20021;-37
2022/01/31 08:05:55;;;;;;;10.18;3.30;;;;;;;;;;5030822;28;20045;-37
2022/01/31 08:08:21;;;;;;;6.43;2.95;;;;;;;;;;5030707;28;20447;-37
2022/01/31 08:10:46;;;;;;;6.03;2.47;;;;;;;;;;5029602;28;20476;-37
2022/01/31 08:13:12;;;;;;;4.80;1.88;;;;;;;;;;5030609;28;20029;-37
2022/01/31 08:15:47;;;;;;;3.58;2.15;;;;;;;;;;5030809;28;20030;-37
2022/01/31 08:18:13;;;;;;;6.70;2.88;;;;;;;;;;5030937;28;20387;-37
2022/01/31 08:20:38;;;;;;;7.60;3.03;;;;;;;;;;5030980;28;20104;-37
2022/01/31 08:23:04;;;;;;;5.70;2.47;;;;;;;;;;5030722;28;20026;-37
2022/01/31 08:25:35;;;;;;;6.18;2.88;;;;;;;;;;5029319;28;20037;-37
2022/01/31 08:28:06;;;;;;;5.55;3.42;;;;;;;;;;5034339;28;20036;-37
2022/01/31 08:30:40;;;;;;;5.78;2.50;;;;;;;;;;5034559;28;20029;-37
2022/01/31 08:33:13;;;;;;;8.02;3.30;;;;;;;;;;5034151;28;20112;-37
2022/01/31 08:35:51;;;;;;;4.00;2.70;;;;;;;;;;5034233;28;20025;-37
2022/01/31 08:38:17;;;;;;;4.65;2.60;;;;;;;;;;5034202;28;20109;-37
2022/01/31 08:40:43;;;;;;;4.50;2.25;;;;;;;;;;5032814;28;20025;-37
2022/01/31 08:43:09;;;;;;;8.02;3.38;;;;;;;;;;5034035;28;20099;-37
2022/01/31 08:45:35;;;;;;;6.32;4.07;;;;;;;;;;5034363;28;20061;-37
2022/01/31 08:48:01;;;;;;;7.60;2.55;;;;;;;;;;5033907;28;20116;-37
2022/01/31 08:50:26;;;;;;;4.72;2.55;;;;;;;;;;5033864;28;20104;-37
2022/01/31 08:52:52;;;;;;;4.82;2.60;;;;;;;;;;5034181;28;20026;-37
2022/01/31 08:55:20;;;;;;;2.90;2.60;;;;;;;;;;5033747;28;20467;-37
2022/01/31 08:57:47;;;;;;;6.07;3.00;;;;;;;;;;5033845;28;20084;-37
2022/01/31 09:00:13;;;;;;;6.78;2.83;;;;;;;;;;5033973;28;20033;-37
2022/01/31 09:02:49;;;;;;;4.82;2.35;;;;;;;;;;5033706;28;20044;-37
2022/01/31 09:05:14;;;;;;;3.92;2.78;;;;;;;;;;5033548;28;20476;-37
2022/01/31 09:07:40;;;;;;;4.07;2.05;;;;;;;;;;5034008;28;20104;-37
2022/01/31 09:10:06;;;;;;;8.70;3.40;;;;;;;;;;5033442;28;20029;-37
2022/01/31 09:12:33;;;;;;;5.00;2.38;;;;;;;;;;5032179;28;20026;-37
2022/01/31 09:14:59;;;;;;;5.22;2.90;;;;;;;;;;5033750;28;20111;-37
2022/01/31 09:17:24;;;;;;;7.85;2.78;;;;;;;;;;5033310;28;20033;-37
2022/01/31 09:19:50;;;;;;;5.75;2.28;;;;;;;;;;5033435;28;20042;-37
2022/01/31 09:22:16;;;;;;;6.13;3.17;;;;;;;;;;5033535;28;20171;-38
2022/01/31 09:24:42;;;;;;;5.82;2.65;;;;;;;;;;5033205;28;20033;-37
2022/01/31 09:27:10;;;;;;;5.25;2.30;;;;;;;;;;5033298;28;20092;-37
2022/01/31 09:29:36;;;;;;;3.15;2.13;;;;;;;;;;5033205;28;20033;-37
2022/01/31 09:32:04;;;;;;;3.10;2.80;;;;;;;;;;5033374;28;20034;-37
2022/01/31 09:34:32;;;;;;;3.97;2.50;;;;;;;;;;5032960;28;20033;-37
2022/01/31 09:36:58;;;;;;;5.00;2.90;;;;;;;;;;5032801;28;20047;-37
2022/01/31 09:39:23;;;;;;;8.90;2.65;;;;;;;;;;5032542;28;20519;-37
2022/01/31 09:41:54;;;;;;;6.60;2.88;;;;;;;;;;5032701;28;20054;-37
2022/01/31 09:44:38;;;;;;;9.10;3.50;;;;;;;;;;5032598;28;20034;-37
2022/01/31 09:47:08;;;;;;;6.60;2.63;;;;;;;;;;5032985;28;20037;-37
2022/01/31 09:49:33;;;;;;;6.82;2.90;;;;;;;;;;5032799;28;20017;-37
2022/01/31 09:51:59;;;;;;;8.85;3.80;;;;;;;;;;5032647;28;20035;-37
2022/01/31 09:54:27;;;;;;;6.88;3.78;;;;;;;;;;5032965;28;20021;-37
2022/01/31 09:56:53;;;;;;;6.03;2.60;;;;;;;;;;5032983;28;20025;-36
2022/01/31 09:59:19;;;;;;;6.80;3.72;;;;;;;;;;5032537;28;20022;-37
2022/01/31 10:01:52;;;;;;;9.38;4.00;;;;;;;;;;5032827;28;20040;-37
2022/01/31 10:04:18;;;;;;;4.07;2.95;;;;;;;;;;5032437;28;20542;-37
2022/01/31 10:06:51;;;;;;;4.63;2.80;;;;;;;;;;5032503;28;20030;-37
2022/01/31 10:09:17;;;;;;;;;;;;;;;;;;5031632;28;20025;-37
2022/01/31 10:12:08;;;;;;;7.28;3.92;;;;;;;;;;5032333;28;19909;-37
2022/01/31 10:17:22;;;;;;;2.58;2.17;;;;;;;;;;5032259;28;20033;-37
2022/01/31 10:19:47;;;;;;;12.52;2.40;;;;;;;;;;5032266;28;20163;-37
2022/01/31 10:22:14;;;;;;;7.25;2.15;;;;;;;;;;5032397;28;20364;-37
2022/01/31 10:24:42;;;;;;;3.20;2.25;;;;;;;;;;5032081;28;20029;-37
2022/01/31 10:27:10;;;;;;;3.45;1.88;;;;;;;;;;5032056;28;20037;-37
2022/01/31 10:29:35;;;;;;;5.72;2.78;;;;;;;;;;5032090;28;20033;-37
2022/01/31 10:32:01;;;;;;;2.85;1.88;;;;;;;;;;5031960;28;20040;-37
2022/01/31 10:34:29;;;;;;;6.35;1.98;;;;;;;;;;5032232;28;20083;-37
2022/01/31 10:36:54;;;;;;;3.53;2.40;;;;;;;;;;5031946;28;20109;-37
2022/01/31 10:53:22;;;;;;;3.50;2.65;;;;;;;;;;5029246;28;20067;-37
2022/01/31 10:55:56;;;;;;;3.65;1.83;;;;;;;;;;5031284;28;20456;-37
2022/01/31 10:58:22;;;;;;;5.55;3.03;;;;;;;;;;5031540;28;20494;-37
2022/01/31 11:00:48;;;;;;;4.03;3.00;;;;;;;;;;5031579;28;20025;-37
2022/01/31 11:03:33;;;;;;;7.38;4.15;;;;;;;;;;5031310;28;20514;-37
2022/01/31 11:06:04;;;;;;;8.45;4.57;;;;;;;;;;5031473;28;20065;-37
2022/01/31 11:08:30;;;;;;;10.25;4.22;;;;;;;;;;5031618;28;20030;-37
2022/01/31 11:10:59;;;;;;;9.10;4.53;;;;;;;;;;5031298;28;20168;-37
2022/01/31 11:13:30;;;;;;;7.53;4.28;;;;;;;;;;5031555;28;20028;-37
2022/01/31 11:15:56;;;;;;;6.20;3.78;;;;;;;;;;5031440;28;20033;-37
2022/01/31 11:18:23;;;;;;;11.68;4.43;;;;;;;;;;5031468;28;20036;-37
2022/01/31 11:20:57;;;;;;;4.95;3.35;;;;;;;;;;5031827;28;20026;-37
2022/01/31 11:23:24;;;;;;;11.63;5.22;;;;;;;;;;5031413;28;20033;-37
2022/01/31 11:25:53;;;;;;;9.27;3.38;;;;;;;;;;5031146;28;20033;-37
2022/01/31 11:28:20;;;;;;;8.60;4.57;;;;;;;;;;5031514;28;20029;-36
2022/01/31 11:30:46;;;;;;;4.47;2.78;;;;;;;;;;5031074;28;20025;-37
2022/01/31 11:33:12;;;;;;;6.07;2.70;;;;;;;;;;5031160;28;20155;-37
2022/01/31 11:35:38;;;;;;;8.35;3.60;;;;;;;;;;5031237;28;20052;-37
2022/01/31 11:38:04;;;;;;;7.25;4.03;;;;;;;;;;5031375;28;20057;-37
2022/01/31 11:40:30;;;;;;;5.22;3.35;;;;;;;;;;5031298;28;20071;-37
2022/01/31 11:42:55;;;;;;;8.18;3.45;;;;;;;;;;5030934;28;20045;-37
2022/01/31 11:45:32;;;;;;;11.93;3.78;;;;;;;;;;5030883;28;20092;-37
2022/01/31 11:48:04;;;;;;;7.95;4.15;;;;;;;;;;5031038;28;20083;-41
2022/01/31 11:50:30;;;;;;;8.63;4.28;;;;;;;;;;5030926;28;20045;-37
2022/01/31 11:52:58;;;;;;;7.85;4.93;;;;;;;;;;5030979;28;20083;-37
2022/01/31 11:55:24;;;;;;;11.75;5.30;;;;;;;;;;5030856;28;20124;-37
2022/01/31 11:57:51;;;;;;;11.45;5.90;;;;;;;;;;5031330;28;20083;-37
2022/01/31 12:00:18;;;;;;;15.13;7.38;;;;;;;;;;5030719;28;20480;-37
2022/01/31 12:02:44;;;;;;;15.60;6.47;;;;;;;;;;5034931;28;20033;-37
2022/01/31 12:05:16;;;;;;;10.52;5.38;;;;;;;;;;5034965;28;20041;-37
2022/01/31 12:07:45;;;;;;;7.05;4.18;;;;;;;;;;5034809;28;20025;-36
2022/01/31 12:10:20;;;;;;;6.70;4.38;;;;;;;;;;5034774;28;20026;-37
2022/01/31 12:12:53;;;;;;;4.15;3.33;;;;;;;;;;5034971;28;20072;-37
2022/01/31 12:15:39;;;;;;;6.93;3.78;;;;;;;;;;5034365;28;20037;-37
2022/01/31 12:23:55;;;;;;;8.75;4.65;;;;;;;;;;5034786;28;20029;-37
2022/01/31 12:26:31;;;;;;;7.75;3.85;;;;;;;;;;5034536;28;20120;-37
2022/01/31 12:28:58;;;;;;;9.57;4.43;;;;;;;;;;5034317;28;20036;-37
2022/01/31 12:31:29;;;;;;;10.98;5.47;;;;;;;;;;5034164;28;20021;-37
2022/01/31 12:33:56;;;;;;;6.07;3.63;;;;;;;;;;5034253;28;20029;-37
2022/01/31 12:36:35;;;;;;;5.18;3.67;;;;;;;;;;5034194;28;20048;-36
2022/01/31 12:39:04;;;;;;;4.75;3.13;;;;;;;;;;5033236;28;20376;-36
2022/01/31 12:41:31;;;;;;;6.20;3.45;;;;;;;;;;5033816;28;20042;-36
2022/01/31 12:44:20;;;;;;;7.93;4.22;;;;;;;;;;5034343;28;20487;-36
2022/01/31 12:46:53;;;;;;;9.52;5.25;;;;;;;;;;5034021;28;20491;-37
2022/01/31 12:49:20;;;;;;;9.43;4.18;;;;;;;;;;5034196;28;20434;-37
2022/01/31 12:51:56;;;;;;;6.75;3.63;;;;;;;;;;5034243;28;20022;-37
2022/01/31 12:54:23;;;;;;;7.40;3.25;;;;;;;;;;5033851;28;20426;-37
2022/01/31 12:56:49;;;;;;;5.50;2.63;;;;;;;;;;5033831;28;20026;-36
2022/01/31 12:59:17;;;;;;;6.07;3.47;;;;;;;;;;5033631;28;20025;-36
2022/01/31 13:01:45;;;;;;;11.40;3.38;;;;;;;;;;5033987;28;20035;-36
2022/01/31 13:04:14;;;;;;;5.75;3.03;;;;;;;;;;5032147;28;20472;-37
2022/01/31 13:06:47;;;;;;;7.18;4.03;;;;;;;;;;5033771;28;20033;-36
2022/01/31 13:09:17;;;;;;;5.38;3.05;;;;;;;;;;5033788;28;20083;-37
2022/01/31 13:11:45;;;;;;;6.32;3.05;;;;;;;;;;5033363;28;20029;-36
2022/01/31 13:14:12;;;;;;;5.03;3.08;;;;;;;;;;5033699;28;20029;-37
2022/01/31 13:16:43;;;;;;;8.55;4.22;;;;;;;;;;5033798;28;20407;-37
2022/01/31 13:19:14;;;;;;;8.18;4.13;;;;;;;;;;5033686;28;20436;-37
2022/01/31 13:21:40;;;;;;;5.10;3.90;;;;;;;;;;5033331;28;20499;-37
2022/01/31 13:24:06;;;;;;;6.28;3.38;;;;;;;;;;5032161;28;20108;-37
2022/01/31 13:26:46;;;;;;;8.82;5.63;;;;;;;;;;5033327;28;20499;-37
2022/01/31 13:29:24;;;;;;;5.22;3.00;;;;;;;;;;5033472;28;20490;-37
2022/01/31 13:31:53;;;;;;;6.43;4.00;;;;;;;;;;5033120;28;20034;-37
2022/01/31 13:34:32;;;;;;;8.75;3.42;;;;;;;;;;5031823;28;20503;-37
2022/01/31 13:36:58;;;;;;;7.82;3.92;;;;;;;;;;5033072;28;20093;-36
2022/01/31 13:39:24;;;;;;;7.40;3.30;;;;;;;;;;5032826;28;20072;-37
2022/01/31 13:41:54;;;;;;;6.68;3.47;;;;;;;;;;5032845;28;20092;-37
2022/01/31 13:44:22;;;;;;;12.35;4.85;;;;;;;;;;5032862;28;20025;-37
2022/01/31 13:46:56;;;;;;;6.75;3.90;;;;;;;;;;5033166;28;20037;-37
2022/01/31 13:49:33;;;;;;;5.10;3.33;;;;;;;;;;5032856;28;20041;-36
2022/01/31 13:51:59;;;;;;;8.80;3.70;;;;;;;;;;5032762;28;20041;-36
2022/01/31 13:54:25;;;;;;;7.97;3.75;;;;;;;;;;5033168;28;20156;-37
2022/01/31 13:57:03;;;;;;;7.00;4.43;;;;;;;;;;5032716;28;20038;-37
2022/01/31 13:59:29;;;;;;;7.93;4.10;;;;;;;;;;5032973;28;20408;-37
2022/01/31 14:02:08;;;;;;;12.93;3.70;;;;;;;;;;5032627;28;20322;-37
2022/01/31 14:04:39;;;;;;;14.15;4.95;;;;;;;;;;5032584;28;20083;-37
2022/01/31 14:07:05;;;;;;;6.13;3.35;;;;;;;;;;5032536;28;20135;-36
2022/01/31 14:09:32;;;;;;;7.85;3.58;;;;;;;;;;5031883;28;20116;-37
2022/01/31 14:11:58;;;;;;;7.43;4.32;;;;;;;;;;5031157;28;20495;-37
2022/01/31 14:14:27;;;;;;;7.43;4.32;;;;;;;;;;5032310;28;20024;-37
2022/01/31 14:17:00;;;;;;;7.07;3.88;;;;;;;;;;5032714;28;20034;-37
2022/01/31 14:19:26;;;;;;;5.03;2.65;;;;;;;;;;5032182;28;20468;-36
2022/01/31 14:21:54;;;;;;;6.90;4.38;;;;;;;;;;5032095;28;20036;-37
2022/01/31 14:24:26;;;;;;;4.47;3.00;;;;;;;;;;5031504;28;20044;-37
2022/01/31 14:27:02;;;;;;;8.60;4.38;;;;;;;;;;5032446;28;20029;-37
2022/01/31 14:29:36;;;;;;;8.40;3.97;;;;;;;;;;5032040;28;20112;-37
2022/01/31 14:32:05;;;;;;;7.82;4.78;;;;;;;;;;5032314;28;20398;-37
2022/01/31 14:34:34;;;;;;;8.90;5.05;;;;;;;;;;5031830;28;20045;-37
2022/01/31 14:37:03;;;;;;;8.40;4.95;;;;;;;;;;5030959;28;20476;-37
2022/01/31 14:39:39;;;;;;;11.40;4.03;;;;;;;;;;5032234;28;20043;-36
2022/01/31 14:47:47;;;;;;;4.47;2.47;;;;;;;;;;5031871;28;20188;-37
2022/01/31 14:50:14;;;;;;;8.98;5.00;;;;;;;;;;5030288;28;20163;-36
2022/01/31 14:52:40;;;;;;;6.10;3.92;;;;;;;;;;5031797;28;20021;-37
2022/01/31 14:55:11;;;;;;;6.57;4.25;;;;;;;;;;5031691;28;20383;-37
2022/01/31 14:57:38;;;;;;;8.75;4.40;;;;;;;;;;5031638;28;20392;-37
2022/01/31 15:00:17;;;;;;;8.60;5.10;;;;;;;;;;5031528;28;20102;-37
2022/01/31 15:02:43;;;;;;;13.57;5.22;;;;;;;;;;5031686;28;20026;-37
2022/01/31 15:05:12;;;;;;;6.13;4.28;;;;;;;;;;5031339;28;20118;-37
2022/01/31 15:07:40;;;;;;;10.93;5.97;;;;;;;;;;5031624;28;20604;-37
2022/01/31 15:10:09;;;;;;;9.73;4.90;;;;;;;;;;5031412;28;20032;-37
2022/01/31 15:12:35;;;;;;;14.43;5.35;;;;;;;;;;5031528;28;20031;-37
2022/01/31 15:15:02;;;;;;;11.73;4.47;;;;;;;;;;5031419;28;20026;-36
2022/01/31 15:17:30;;;;;;;6.43;4.55;;;;;;;;;;5031324;28;20104;-37
2022/01/31 15:19:55;;;;;;;7.47;4.18;;;;;;;;;;5031459;28;20021;-37